Weather Models
Both GFS & NAM
00z 06z 12z 18z
24hr Precip
00z 06z 12z 18z
36hr Simulated radar
00z 06z 12z 18z
SKEWT Soundings
00z 12z
Current Conditions (Updated 8:25am on 1/27/21)
Temperature
 38°
0.19
39°  
37°  
0
10
20
30
40
50
60
70
80
90
100
Dew Point
30°
33°  
30°  
-20
-10
0
10
20
30
40
50
60
70
80
Wind Chill
30°
39°  
28°  
-20
-10
0
10
20
30
40
50
60
70
80
Wind Chill
Humidity
73%
83% 
73% 
0
10
20
30
40
50
60
70
80
90
100
Barometer
30.04
   Rising
30.04  
29.90  
28.00
28.30
28.60
28.90
29.20
29.50
29.80
30.10
30.40
30.70
31.00
Temperature
Dew Point
Humidity
Pressure
Wind
13mph
NNW
Daily Rain
.00
.05
.10
.15
.20
.25
.30
.35
.40
.45
.50
Rain Today
 0.00" 
Month Rain
0.00
0.20
0.40
0.60
0.80
1.00
1.20
1.40
1.60
1.80
2.00
Month Rain
 1.36" 
Year Rain
0.00
0.25
0.50
0.75
1.00
1.25
1.50
1.75
2.00
2.25
2.50
Year Rain
 1.36" 
Sun & Moon Data
Sunrise 7:11am
Sunset 5:12pm
Moonrise 4:03pm
Moonset 6:37am
Moon % 97%
Other Rain Data
Past Hour 0.00 Past 24 Hours 0.09
Past 3 Hours 0.00 Past 7 Days 0.09
Past 6 Hours 0.00
Cloud Height
1970


Current Front Map
Current Satellite map
Current Radar
7 Day Forecast
NWS Forecast for Philadelphia PA
National Weather Service Forecast for: Philadelphia PA
Issued by: National Weather Service Philadelphia, PA
Updated: 7:08 am EST Jan 27, 2021

Philadelphia PA.
 
Today

Today: Partly sunny, with a high near 41. Northwest wind 10 to 15 mph.
Partly Sunny

Tonight

Tonight: Mostly cloudy, with a low around 28. North wind around 10 mph.
Mostly Cloudy

Thursday

Thursday: Mostly cloudy, then gradually becoming sunny, with a high near 36. Breezy, with a northwest wind 15 to 20 mph, with gusts as high as 35 mph.
Decreasing
Clouds and
Breezy
Thursday
Night
Thursday Night: Mostly clear, with a low around 18. Blustery, with a northwest wind 15 to 20 mph.
Mostly Clear
and Blustery
then Mostly
Clear
Friday

Friday: Mostly sunny, with a high near 29. Blustery, with a northwest wind 15 to 25 mph, with gusts as high as 35 mph.
Mostly Sunny
and Blustery

Friday
Night
Friday Night: Clear, with a low around 15.
Clear

Saturday

Saturday: Sunny, with a high near 31.
Sunny

Saturday
Night
Saturday Night: Partly cloudy, with a low around 20.
Partly Cloudy

Sunday

Sunday: A chance of rain and snow after 1pm.  Cloudy, with a high near 35. Chance of precipitation is 30%.
Mostly Cloudy
then Chance
Rain/Snow
Hi 41 °F Lo 28 °F Hi 36 °F Lo 18 °F Hi 29 °F Lo 15 °F Hi 31 °F Lo 20 °F Hi 35 °F

 

Today
 
Partly sunny, with a high near 41. Northwest wind 10 to 15 mph.
Tonight
 
Mostly cloudy, with a low around 28. North wind around 10 mph.
Thursday
 
Mostly cloudy, then gradually becoming sunny, with a high near 36. Breezy, with a northwest wind 15 to 20 mph, with gusts as high as 35 mph.
Thursday Night
 
Mostly clear, with a low around 18. Blustery, with a northwest wind 15 to 20 mph.
Friday
 
Mostly sunny, with a high near 29. Blustery, with a northwest wind 15 to 25 mph, with gusts as high as 35 mph.
Friday Night
 
Clear, with a low around 15.
Saturday
 
Sunny, with a high near 31.
Saturday Night
 
Partly cloudy, with a low around 20.
Sunday
 
A chance of rain and snow after 1pm. Cloudy, with a high near 35. Chance of precipitation is 30%.
Sunday Night
 
Snow likely, mainly after 1am. Cloudy, with a low around 29. Chance of precipitation is 60%.
Monday
 
Rain and snow likely. Cloudy, with a high near 38. Chance of precipitation is 60%.
Monday Night
 
A chance of rain and snow. Cloudy, with a low around 31. Chance of precipitation is 50%.
Tuesday
 
A chance of rain and snow. Mostly cloudy, with a high near 39. Chance of precipitation is 30%.

 

Forecast from NOAA-NWS for Philadelphia PA.

Area Weather Current Conditions
Nearby METAR Reports

KPHL - Philadelphia, Pennsylvania
Updated: Wed, 27-Jan-2021 7:54am EST
Partly Cloudy
Partly Cloudy
 Wind from W
Wind: W 12 mph , 19 km/h
Temperature: 37°F , 3°C
Wind Chill: 29°F , -2°C
Dew Point: 34°F , 1°C
Humidity: 87%
Barometer: 30.03 inHg , 1016.9 hPa
Clouds: Partly Cloudy
Visibility: 8 miles , 13 km
Cloud details: Partly Cloudy 5000 ft
2021/01/27 12:54 KPHL 271254Z 28010KT 8SM SCT050 03/01 A3003 RMK AO2 SLP167 T00280006
KMPO - Mt. Pocono, Pennsylvania
Updated: Wed, 27-Jan-2021 7:53am EST
Overcast
Overcast
 Wind from NW
Wind: NW 17 mph , 28 km/h, Gust: 28 mph , 44 km/h
Temperature: 25°F , -4°C
Wind Chill: 12°F , -11°C
Dew Point: 19°F , -7°C
Humidity: 80%
Barometer: 29.90 inHg , 1012.5 hPa
Clouds: Overcast
Visibility: 10 miles , 16 km
Cloud details: Mostly Cloudy 1800 ft
Overcast 2200 ft
2021/01/27 12:53 KMPO 271253Z AUTO 31015G24KT 10SM BKN018 OVC022 M04/M07 A2990 RMK AO2 SLP151 T10391067
 
KACY - Atlantic City, New Jersey
Updated: Wed, 27-Jan-2021 7:54am EST
Overcast
Overcast
 Wind from NW
Wind: NW 12 mph , 19 km/h
Temperature: 37°F , 3°C
Wind Chill: 29°F , -2°C
Dew Point: 34°F , 1°C
Humidity: 87%
Barometer: 30.00 inHg , 1015.9 hPa
Clouds: Overcast
Visibility: 8 miles , 13 km
Cloud details: Overcast 4700 ft
2021/01/27 12:54 KACY 271254Z 31010KT 8SM OVC047 03/01 A3000 RMK AO2 SLP158 T00280011
KMIV - Millville, New Jersey
Updated: Wed, 27-Jan-2021 7:54am EST
Mostly Cloudy
Mostly Cloudy
 Wind from NW
Wind: NW 13 mph , 20 km/h
Temperature: 37°F , 3°C
Wind Chill: 29°F , -2°C
Dew Point: 34°F , 1°C
Humidity: 87%
Barometer: 30.01 inHg , 1016.3 hPa
Clouds: Mostly Cloudy
Visibility: 10 miles , 16 km
Cloud details: Mostly Cloudy 4800 ft
2021/01/27 12:54 KMIV 271254Z AUTO 31011KT 10SM BKN048 03/01 A3001 RMK AO2 SLP163 T00330006
 
KWWD - Wildwood, New Jersey
Updated: Wed, 27-Jan-2021 7:56am EST
Overcast
Overcast
 Wind from WNW
Wind: WNW 9 mph , 15 km/h
Temperature: 39°F , 4°C
Wind Chill: 33°F , 1°C
Dew Point: 36°F , 2°C
Humidity: 87%
Barometer: 30.02 inHg , 1016.6 hPa
Clouds: Overcast
Visibility: 10 miles , 16 km
Cloud details: Overcast 5000 ft
2021/01/27 12:56 KWWD 271256Z AUTO 30008KT 10SM OVC050 04/02 A3002 RMK AO2 SLP167 T00390022 $
KDOV - Dover Afb, Delaware
Updated: Tue, 26-Jan-2021 2:56pm EST
NOT Current
Light drizzle, Mist, Overcast
Light drizzle, Mist, Overcast
 Wind from NE
Wind: NE 6 mph , 9 km/h
Temperature: 41°F , 5°C
Wind Chill: 37°F , 3°C
Dew Point: 41°F , 5°C
Humidity: 100%
Barometer: 29.82 inHg , 1009.8 hPa
Summary: Light drizzle, Mist
Clouds: Overcast
Visibility: 3 miles , 5 km
Cloud details: Overcast 500 ft
2021/01/26 19:56 KDOV 261956Z AUTO 04005KT 3SM -DZ BR OVC005 05/05 A2982 RMK AO2 RAE20DZB20 CIG 002 RWY19 SLP101 P0001 T00500050 $
Severe Weather Map